<?xml version="1.0" encoding="UTF-8" standalone="no" ?>
<gpx xmlns="http://www.topografix.com/GPX/1/1" xmlns:xsi="http://www.w3.org/2001/XMLSchema-instance" xsi:schemaLocation="http://www.topografix.com/GPX/1/1 http://www.topografix.com/GPX/1/1/gpx.xsd" version="1.1" creator="VisuGPX - https://www.visugpx.com">
  <metadata>
    <name>Pointe de la Gorgeat - Mont Joigny</name>
    <desc><![CDATA[Dimanche maussade, la chance nous accompagne et la balade se déroule sans pluie ;o)]]></desc>
  </metadata>
  <trk>
    <name><![CDATA[2014-11-16 Pointe de la Gorgeat - Mont Joigny]]></name>
    <trkseg>
      <trkpt lat="45.48017" lon="5.91516">
        <ele>1186</ele>
        <time>2014-11-16T11:32:50Z</time>
      </trkpt>
      <trkpt lat="45.48038" lon="5.91526">
        <ele>1168</ele>
        <time>2014-11-16T11:32:52Z</time>
      </trkpt>
      <trkpt lat="45.48024" lon="5.91513">
        <ele>1136</ele>
        <time>2014-11-16T11:32:53Z</time>
      </trkpt>
      <trkpt lat="45.48019" lon="5.91507">
        <ele>1135</ele>
        <time>2014-11-16T11:32:54Z</time>
      </trkpt>
      <trkpt lat="45.48022" lon="5.9151">
        <ele>1155</ele>
        <time>2014-11-16T11:32:58Z</time>
      </trkpt>
      <trkpt lat="45.48026" lon="5.91517">
        <ele>1173</ele>
        <time>2014-11-16T11:33:02Z</time>
      </trkpt>
      <trkpt lat="45.48031" lon="5.91523">
        <ele>1180</ele>
        <time>2014-11-16T11:34:01Z</time>
      </trkpt>
      <trkpt lat="45.48034" lon="5.91526">
        <ele>1182</ele>
        <time>2014-11-16T11:34:42Z</time>
      </trkpt>
      <trkpt lat="45.48036" lon="5.91522">
        <ele>1182</ele>
        <time>2014-11-16T11:36:44Z</time>
      </trkpt>
      <trkpt lat="45.48039" lon="5.91525">
        <ele>1180</ele>
        <time>2014-11-16T11:39:12Z</time>
      </trkpt>
      <trkpt lat="45.48039" lon="5.91513">
        <ele>1180</ele>
        <time>2014-11-16T11:39:22Z</time>
      </trkpt>
      <trkpt lat="45.48026" lon="5.91477">
        <ele>1179</ele>
        <time>2014-11-16T11:39:47Z</time>
      </trkpt>
      <trkpt lat="45.4802" lon="5.91472">
        <ele>1179</ele>
        <time>2014-11-16T11:39:53Z</time>
      </trkpt>
      <trkpt lat="45.48018" lon="5.91468">
        <ele>1179</ele>
        <time>2014-11-16T11:39:58Z</time>
      </trkpt>
      <trkpt lat="45.48016" lon="5.91459">
        <ele>1179</ele>
        <time>2014-11-16T11:40:04Z</time>
      </trkpt>
      <trkpt lat="45.48016" lon="5.91455">
        <ele>1180</ele>
        <time>2014-11-16T11:40:06Z</time>
      </trkpt>
      <trkpt lat="45.48014" lon="5.91447">
        <ele>1180</ele>
        <time>2014-11-16T11:40:11Z</time>
      </trkpt>
      <trkpt lat="45.48012" lon="5.91437">
        <ele>1178</ele>
        <time>2014-11-16T11:40:17Z</time>
      </trkpt>
      <trkpt lat="45.48013" lon="5.91428">
        <ele>1179</ele>
        <time>2014-11-16T11:40:25Z</time>
      </trkpt>
      <trkpt lat="45.48014" lon="5.91424">
        <ele>1180</ele>
        <time>2014-11-16T11:40:28Z</time>
      </trkpt>
      <trkpt lat="45.48014" lon="5.91413">
        <ele>1180</ele>
        <time>2014-11-16T11:40:34Z</time>
      </trkpt>
      <trkpt lat="45.48015" lon="5.91409">
        <ele>1181</ele>
        <time>2014-11-16T11:40:36Z</time>
      </trkpt>
      <trkpt lat="45.48015" lon="5.91401">
        <ele>1179</ele>
        <time>2014-11-16T11:40:44Z</time>
      </trkpt>
      <trkpt lat="45.48013" lon="5.91391">
        <ele>1178</ele>
        <time>2014-11-16T11:40:49Z</time>
      </trkpt>
      <trkpt lat="45.4801" lon="5.91381">
        <ele>1179</ele>
        <time>2014-11-16T11:40:55Z</time>
      </trkpt>
      <trkpt lat="45.48008" lon="5.9137">
        <ele>1178</ele>
        <time>2014-11-16T11:41:02Z</time>
      </trkpt>
      <trkpt lat="45.48006" lon="5.91365">
        <ele>1181</ele>
        <time>2014-11-16T11:41:05Z</time>
      </trkpt>
      <trkpt lat="45.48009" lon="5.91359">
        <ele>1183</ele>
        <time>2014-11-16T11:41:10Z</time>
      </trkpt>
      <trkpt lat="45.48011" lon="5.91351">
        <ele>1185</ele>
        <time>2014-11-16T11:41:16Z</time>
      </trkpt>
      <trkpt lat="45.48015" lon="5.91343">
        <ele>1184</ele>
        <time>2014-11-16T11:41:21Z</time>
      </trkpt>
      <trkpt lat="45.48013" lon="5.91333">
        <ele>1189</ele>
        <time>2014-11-16T11:41:27Z</time>
      </trkpt>
      <trkpt lat="45.48013" lon="5.91323">
        <ele>1193</ele>
        <time>2014-11-16T11:41:33Z</time>
      </trkpt>
      <trkpt lat="45.48012" lon="5.91313">
        <ele>1193</ele>
        <time>2014-11-16T11:41:39Z</time>
      </trkpt>
      <trkpt lat="45.48015" lon="5.91304">
        <ele>1194</ele>
        <time>2014-11-16T11:41:44Z</time>
      </trkpt>
      <trkpt lat="45.48016" lon="5.91295">
        <ele>1196</ele>
        <time>2014-11-16T11:41:50Z</time>
      </trkpt>
      <trkpt lat="45.48015" lon="5.9129">
        <ele>1193</ele>
        <time>2014-11-16T11:41:52Z</time>
      </trkpt>
      <trkpt lat="45.48017" lon="5.9128">
        <ele>1190</ele>
        <time>2014-11-16T11:41:58Z</time>
      </trkpt>
      <trkpt lat="45.48021" lon="5.91272">
        <ele>1186</ele>
        <time>2014-11-16T11:42:05Z</time>
      </trkpt>
      <trkpt lat="45.48021" lon="5.91264">
        <ele>1187</ele>
        <time>2014-11-16T11:42:42Z</time>
      </trkpt>
      <trkpt lat="45.48016" lon="5.91252">
        <ele>1189</ele>
        <time>2014-11-16T11:42:49Z</time>
      </trkpt>
      <trkpt lat="45.48015" lon="5.91248">
        <ele>1193</ele>
        <time>2014-11-16T11:43:02Z</time>
      </trkpt>
      <trkpt lat="45.48014" lon="5.91201">
        <ele>1199</ele>
        <time>2014-11-16T11:43:48Z</time>
      </trkpt>
      <trkpt lat="45.48012" lon="5.91189">
        <ele>1199</ele>
        <time>2014-11-16T11:43:57Z</time>
      </trkpt>
      <trkpt lat="45.48011" lon="5.91175">
        <ele>1198</ele>
        <time>2014-11-16T11:44:06Z</time>
      </trkpt>
      <trkpt lat="45.47988" lon="5.91121">
        <ele>1201</ele>
        <time>2014-11-16T11:44:56Z</time>
      </trkpt>
      <trkpt lat="45.47985" lon="5.91118">
        <ele>1202</ele>
        <time>2014-11-16T11:44:59Z</time>
      </trkpt>
      <trkpt lat="45.47975" lon="5.91099">
        <ele>1203</ele>
        <time>2014-11-16T11:45:12Z</time>
      </trkpt>
      <trkpt lat="45.4796" lon="5.9104">
        <ele>1204</ele>
        <time>2014-11-16T11:45:49Z</time>
      </trkpt>
      <trkpt lat="45.47954" lon="5.91017">
        <ele>1205</ele>
        <time>2014-11-16T11:46:00Z</time>
      </trkpt>
      <trkpt lat="45.47949" lon="5.90984">
        <ele>1203</ele>
        <time>2014-11-16T11:46:25Z</time>
      </trkpt>
      <trkpt lat="45.47947" lon="5.90978">
        <ele>1202</ele>
        <time>2014-11-16T11:46:29Z</time>
      </trkpt>
      <trkpt lat="45.47944" lon="5.90956">
        <ele>1211</ele>
        <time>2014-11-16T11:46:45Z</time>
      </trkpt>
      <trkpt lat="45.47946" lon="5.90948">
        <ele>1209</ele>
        <time>2014-11-16T11:46:55Z</time>
      </trkpt>
      <trkpt lat="45.47949" lon="5.90946">
        <ele>1211</ele>
        <time>2014-11-16T11:46:57Z</time>
      </trkpt>
      <trkpt lat="45.47982" lon="5.90963">
        <ele>1216</ele>
        <time>2014-11-16T11:48:02Z</time>
      </trkpt>
      <trkpt lat="45.47986" lon="5.90965">
        <ele>1217</ele>
        <time>2014-11-16T11:48:26Z</time>
      </trkpt>
      <trkpt lat="45.47991" lon="5.90968">
        <ele>1216</ele>
        <time>2014-11-16T11:48:28Z</time>
      </trkpt>
      <trkpt lat="45.48004" lon="5.90979">
        <ele>1220</ele>
        <time>2014-11-16T11:48:36Z</time>
      </trkpt>
      <trkpt lat="45.48015" lon="5.90991">
        <ele>1224</ele>
        <time>2014-11-16T11:48:47Z</time>
      </trkpt>
      <trkpt lat="45.48021" lon="5.90996">
        <ele>1230</ele>
        <time>2014-11-16T11:48:53Z</time>
      </trkpt>
      <trkpt lat="45.48028" lon="5.90999">
        <ele>1230</ele>
        <time>2014-11-16T11:49:04Z</time>
      </trkpt>
      <trkpt lat="45.48036" lon="5.91011">
        <ele>1241</ele>
        <time>2014-11-16T11:49:22Z</time>
      </trkpt>
      <trkpt lat="45.4804" lon="5.91012">
        <ele>1240</ele>
        <time>2014-11-16T11:49:35Z</time>
      </trkpt>
      <trkpt lat="45.48047" lon="5.91018">
        <ele>1240</ele>
        <time>2014-11-16T11:49:49Z</time>
      </trkpt>
      <trkpt lat="45.4805" lon="5.9102">
        <ele>1242</ele>
        <time>2014-11-16T11:49:55Z</time>
      </trkpt>
      <trkpt lat="45.48074" lon="5.91041">
        <ele>1256</ele>
        <time>2014-11-16T11:50:46Z</time>
      </trkpt>
      <trkpt lat="45.48077" lon="5.91042">
        <ele>1254</ele>
        <time>2014-11-16T11:50:49Z</time>
      </trkpt>
      <trkpt lat="45.4808" lon="5.91049">
        <ele>1254</ele>
        <time>2014-11-16T11:50:54Z</time>
      </trkpt>
      <trkpt lat="45.48084" lon="5.91057">
        <ele>1255</ele>
        <time>2014-11-16T11:51:00Z</time>
      </trkpt>
      <trkpt lat="45.48087" lon="5.91065">
        <ele>1253</ele>
        <time>2014-11-16T11:51:06Z</time>
      </trkpt>
      <trkpt lat="45.48091" lon="5.91076">
        <ele>1257</ele>
        <time>2014-11-16T11:51:12Z</time>
      </trkpt>
      <trkpt lat="45.48092" lon="5.9108">
        <ele>1256</ele>
        <time>2014-11-16T11:51:15Z</time>
      </trkpt>
      <trkpt lat="45.48097" lon="5.91095">
        <ele>1261</ele>
        <time>2014-11-16T11:51:36Z</time>
      </trkpt>
      <trkpt lat="45.48103" lon="5.91107">
        <ele>1259</ele>
        <time>2014-11-16T11:51:45Z</time>
      </trkpt>
      <trkpt lat="45.48107" lon="5.91113">
        <ele>1258</ele>
        <time>2014-11-16T11:51:50Z</time>
      </trkpt>
      <trkpt lat="45.48118" lon="5.91132">
        <ele>1263</ele>
        <time>2014-11-16T11:52:17Z</time>
      </trkpt>
      <trkpt lat="45.48126" lon="5.91153">
        <ele>1264</ele>
        <time>2014-11-16T11:52:30Z</time>
      </trkpt>
      <trkpt lat="45.48136" lon="5.91186">
        <ele>1262</ele>
        <time>2014-11-16T11:52:51Z</time>
      </trkpt>
      <trkpt lat="45.48145" lon="5.9121">
        <ele>1263</ele>
        <time>2014-11-16T11:53:03Z</time>
      </trkpt>
      <trkpt lat="45.48154" lon="5.91227">
        <ele>1261</ele>
        <time>2014-11-16T11:53:20Z</time>
      </trkpt>
      <trkpt lat="45.48168" lon="5.9125">
        <ele>1266</ele>
        <time>2014-11-16T11:53:39Z</time>
      </trkpt>
      <trkpt lat="45.48172" lon="5.91262">
        <ele>1262</ele>
        <time>2014-11-16T11:53:55Z</time>
      </trkpt>
      <trkpt lat="45.48179" lon="5.91282">
        <ele>1267</ele>
        <time>2014-11-16T11:54:10Z</time>
      </trkpt>
      <trkpt lat="45.48182" lon="5.91287">
        <ele>1266</ele>
        <time>2014-11-16T11:54:20Z</time>
      </trkpt>
      <trkpt lat="45.48187" lon="5.91293">
        <ele>1267</ele>
        <time>2014-11-16T11:54:39Z</time>
      </trkpt>
      <trkpt lat="45.48202" lon="5.91312">
        <ele>1253</ele>
        <time>2014-11-16T11:54:53Z</time>
      </trkpt>
      <trkpt lat="45.48204" lon="5.91317">
        <ele>1253</ele>
        <time>2014-11-16T11:54:57Z</time>
      </trkpt>
      <trkpt lat="45.48201" lon="5.9132">
        <ele>1251</ele>
        <time>2014-11-16T11:55:04Z</time>
      </trkpt>
      <trkpt lat="45.48208" lon="5.91335">
        <ele>1253</ele>
        <time>2014-11-16T11:55:26Z</time>
      </trkpt>
      <trkpt lat="45.48222" lon="5.91349">
        <ele>1249</ele>
        <time>2014-11-16T11:55:48Z</time>
      </trkpt>
      <trkpt lat="45.48226" lon="5.91354">
        <ele>1251</ele>
        <time>2014-11-16T11:55:52Z</time>
      </trkpt>
      <trkpt lat="45.4823" lon="5.91367">
        <ele>1253</ele>
        <time>2014-11-16T11:56:16Z</time>
      </trkpt>
      <trkpt lat="45.48228" lon="5.91373">
        <ele>1255</ele>
        <time>2014-11-16T11:56:53Z</time>
      </trkpt>
      <trkpt lat="45.48226" lon="5.91377">
        <ele>1256</ele>
        <time>2014-11-16T11:57:00Z</time>
      </trkpt>
      <trkpt lat="45.48222" lon="5.91383">
        <ele>1259</ele>
        <time>2014-11-16T11:57:07Z</time>
      </trkpt>
      <trkpt lat="45.48224" lon="5.91373">
        <ele>1256</ele>
        <time>2014-11-16T11:57:15Z</time>
      </trkpt>
      <trkpt lat="45.48228" lon="5.91374">
        <ele>1258</ele>
        <time>2014-11-16T11:57:21Z</time>
      </trkpt>
      <trkpt lat="45.48222" lon="5.91356">
        <ele>1258</ele>
        <time>2014-11-16T11:57:26Z</time>
      </trkpt>
      <trkpt lat="45.48224" lon="5.91363">
        <ele>1258</ele>
        <time>2014-11-16T11:57:27Z</time>
      </trkpt>
      <trkpt lat="45.48225" lon="5.91373">
        <ele>1265</ele>
        <time>2014-11-16T11:57:37Z</time>
      </trkpt>
      <trkpt lat="45.48227" lon="5.91377">
        <ele>1264</ele>
        <time>2014-11-16T11:57:52Z</time>
      </trkpt>
      <trkpt lat="45.48224" lon="5.91374">
        <ele>1256</ele>
        <time>2014-11-16T11:58:04Z</time>
      </trkpt>
      <trkpt lat="45.48221" lon="5.91366">
        <ele>1260</ele>
        <time>2014-11-16T11:58:44Z</time>
      </trkpt>
      <trkpt lat="45.48212" lon="5.91353">
        <ele>1255</ele>
        <time>2014-11-16T11:58:56Z</time>
      </trkpt>
      <trkpt lat="45.48194" lon="5.9133">
        <ele>1254</ele>
        <time>2014-11-16T11:59:18Z</time>
      </trkpt>
      <trkpt lat="45.48183" lon="5.91306">
        <ele>1262</ele>
        <time>2014-11-16T12:00:06Z</time>
      </trkpt>
      <trkpt lat="45.48159" lon="5.91261">
        <ele>1259</ele>
        <time>2014-11-16T12:00:40Z</time>
      </trkpt>
      <trkpt lat="45.48141" lon="5.9123">
        <ele>1263</ele>
        <time>2014-11-16T12:01:03Z</time>
      </trkpt>
      <trkpt lat="45.4812" lon="5.91159">
        <ele>1255</ele>
        <time>2014-11-16T12:02:20Z</time>
      </trkpt>
      <trkpt lat="45.48099" lon="5.9111">
        <ele>1256</ele>
        <time>2014-11-16T12:02:52Z</time>
      </trkpt>
      <trkpt lat="45.48086" lon="5.91095">
        <ele>1259</ele>
        <time>2014-11-16T12:03:10Z</time>
      </trkpt>
      <trkpt lat="45.48071" lon="5.91046">
        <ele>1252</ele>
        <time>2014-11-16T12:03:51Z</time>
      </trkpt>
      <trkpt lat="45.48058" lon="5.91041">
        <ele>1251</ele>
        <time>2014-11-16T12:04:12Z</time>
      </trkpt>
      <trkpt lat="45.48013" lon="5.90992">
        <ele>1230</ele>
        <time>2014-11-16T12:05:09Z</time>
      </trkpt>
      <trkpt lat="45.48007" lon="5.90989">
        <ele>1228</ele>
        <time>2014-11-16T12:05:19Z</time>
      </trkpt>
      <trkpt lat="45.47934" lon="5.90906">
        <ele>1213</ele>
        <time>2014-11-16T12:06:54Z</time>
      </trkpt>
      <trkpt lat="45.47916" lon="5.90858">
        <ele>1216</ele>
        <time>2014-11-16T12:07:30Z</time>
      </trkpt>
      <trkpt lat="45.47891" lon="5.90688">
        <ele>1232</ele>
        <time>2014-11-16T12:09:48Z</time>
      </trkpt>
      <trkpt lat="45.47872" lon="5.90503">
        <ele>1234</ele>
        <time>2014-11-16T12:11:37Z</time>
      </trkpt>
      <trkpt lat="45.47877" lon="5.90384">
        <ele>1235</ele>
        <time>2014-11-16T12:12:44Z</time>
      </trkpt>
      <trkpt lat="45.47875" lon="5.90333">
        <ele>1245</ele>
        <time>2014-11-16T12:13:32Z</time>
      </trkpt>
      <trkpt lat="45.47872" lon="5.9033">
        <ele>1243</ele>
        <time>2014-11-16T12:13:37Z</time>
      </trkpt>
      <trkpt lat="45.47877" lon="5.90328">
        <ele>1243</ele>
        <time>2014-11-16T12:13:42Z</time>
      </trkpt>
      <trkpt lat="45.47878" lon="5.90312">
        <ele>1240</ele>
        <time>2014-11-16T12:14:03Z</time>
      </trkpt>
      <trkpt lat="45.4788" lon="5.90288">
        <ele>1238</ele>
        <time>2014-11-16T12:14:18Z</time>
      </trkpt>
      <trkpt lat="45.4788" lon="5.90276">
        <ele>1242</ele>
        <time>2014-11-16T12:14:28Z</time>
      </trkpt>
      <trkpt lat="45.47884" lon="5.90244">
        <ele>1243</ele>
        <time>2014-11-16T12:14:45Z</time>
      </trkpt>
      <trkpt lat="45.4788" lon="5.90217">
        <ele>1251</ele>
        <time>2014-11-16T12:15:08Z</time>
      </trkpt>
      <trkpt lat="45.47887" lon="5.90198">
        <ele>1253</ele>
        <time>2014-11-16T12:15:24Z</time>
      </trkpt>
      <trkpt lat="45.47888" lon="5.90193">
        <ele>1253</ele>
        <time>2014-11-16T12:15:59Z</time>
      </trkpt>
      <trkpt lat="45.47888" lon="5.90187">
        <ele>1253</ele>
        <time>2014-11-16T12:16:03Z</time>
      </trkpt>
      <trkpt lat="45.47891" lon="5.90178">
        <ele>1253</ele>
        <time>2014-11-16T12:16:13Z</time>
      </trkpt>
      <trkpt lat="45.47892" lon="5.90174">
        <ele>1253</ele>
        <time>2014-11-16T12:16:15Z</time>
      </trkpt>
      <trkpt lat="45.47891" lon="5.90135">
        <ele>1246</ele>
        <time>2014-11-16T12:16:39Z</time>
      </trkpt>
      <trkpt lat="45.47893" lon="5.90121">
        <ele>1244</ele>
        <time>2014-11-16T12:16:46Z</time>
      </trkpt>
      <trkpt lat="45.47904" lon="5.90089">
        <ele>1246</ele>
        <time>2014-11-16T12:17:23Z</time>
      </trkpt>
      <trkpt lat="45.47912" lon="5.90075">
        <ele>1248</ele>
        <time>2014-11-16T12:17:33Z</time>
      </trkpt>
      <trkpt lat="45.47923" lon="5.90058">
        <ele>1248</ele>
        <time>2014-11-16T12:17:47Z</time>
      </trkpt>
      <trkpt lat="45.47953" lon="5.90041">
        <ele>1243</ele>
        <time>2014-11-16T12:18:16Z</time>
      </trkpt>
      <trkpt lat="45.47976" lon="5.90026">
        <ele>1250</ele>
        <time>2014-11-16T12:18:39Z</time>
      </trkpt>
      <trkpt lat="45.47996" lon="5.90014">
        <ele>1256</ele>
        <time>2014-11-16T12:18:55Z</time>
      </trkpt>
      <trkpt lat="45.48029" lon="5.89986">
        <ele>1262</ele>
        <time>2014-11-16T12:19:21Z</time>
      </trkpt>
      <trkpt lat="45.48056" lon="5.89981">
        <ele>1258</ele>
        <time>2014-11-16T12:19:43Z</time>
      </trkpt>
      <trkpt lat="45.4807" lon="5.89974">
        <ele>1258</ele>
        <time>2014-11-16T12:19:54Z</time>
      </trkpt>
      <trkpt lat="45.48097" lon="5.89968">
        <ele>1252</ele>
        <time>2014-11-16T12:20:17Z</time>
      </trkpt>
      <trkpt lat="45.48129" lon="5.8996">
        <ele>1241</ele>
        <time>2014-11-16T12:20:41Z</time>
      </trkpt>
      <trkpt lat="45.48145" lon="5.89949">
        <ele>1242</ele>
        <time>2014-11-16T12:20:56Z</time>
      </trkpt>
      <trkpt lat="45.48154" lon="5.89948">
        <ele>1243</ele>
        <time>2014-11-16T12:21:01Z</time>
      </trkpt>
      <trkpt lat="45.4817" lon="5.89948">
        <ele>1238</ele>
        <time>2014-11-16T12:21:14Z</time>
      </trkpt>
      <trkpt lat="45.48276" lon="5.89891">
        <ele>1186.49609375</ele>
      </trkpt>
      <trkpt lat="45.48389" lon="5.89759">
        <ele>1187.78515625</ele>
      </trkpt>
      <trkpt lat="45.48439" lon="5.89647">
        <ele>1250</ele>
        <time>2014-11-16T12:26:34Z</time>
      </trkpt>
      <trkpt lat="45.48482" lon="5.89585">
        <ele>1250</ele>
        <time>2014-11-16T12:27:37Z</time>
      </trkpt>
      <trkpt lat="45.48512" lon="5.89553">
        <ele>1269</ele>
        <time>2014-11-16T12:30:01Z</time>
      </trkpt>
      <trkpt lat="45.48521" lon="5.8955">
        <ele>1280</ele>
        <time>2014-11-16T12:30:25Z</time>
      </trkpt>
      <trkpt lat="45.48524" lon="5.89546">
        <ele>1279</ele>
        <time>2014-11-16T12:30:34Z</time>
      </trkpt>
      <trkpt lat="45.4854" lon="5.89538">
        <ele>1280</ele>
        <time>2014-11-16T12:30:54Z</time>
      </trkpt>
      <trkpt lat="45.48547" lon="5.89541">
        <ele>1279</ele>
        <time>2014-11-16T12:31:02Z</time>
      </trkpt>
      <trkpt lat="45.48553" lon="5.89535">
        <ele>1279</ele>
        <time>2014-11-16T12:31:11Z</time>
      </trkpt>
      <trkpt lat="45.48576" lon="5.89519">
        <ele>1291</ele>
        <time>2014-11-16T12:32:02Z</time>
      </trkpt>
      <trkpt lat="45.48618" lon="5.89499">
        <ele>1289</ele>
        <time>2014-11-16T12:33:10Z</time>
      </trkpt>
      <trkpt lat="45.48622" lon="5.89493">
        <ele>1292</ele>
        <time>2014-11-16T12:34:28Z</time>
      </trkpt>
      <trkpt lat="45.48622" lon="5.89486">
        <ele>1304</ele>
        <time>2014-11-16T12:34:49Z</time>
      </trkpt>
      <trkpt lat="45.48625" lon="5.8948">
        <ele>1310</ele>
        <time>2014-11-16T12:35:03Z</time>
      </trkpt>
      <trkpt lat="45.48645" lon="5.89461">
        <ele>1313</ele>
        <time>2014-11-16T12:35:53Z</time>
      </trkpt>
      <trkpt lat="45.48663" lon="5.8946">
        <ele>1319</ele>
        <time>2014-11-16T12:36:29Z</time>
      </trkpt>
      <trkpt lat="45.48703" lon="5.89459">
        <ele>1327</ele>
        <time>2014-11-16T12:37:56Z</time>
      </trkpt>
      <trkpt lat="45.48724" lon="5.89456">
        <ele>1332</ele>
        <time>2014-11-16T12:38:23Z</time>
      </trkpt>
      <trkpt lat="45.48739" lon="5.89458">
        <ele>1336</ele>
        <time>2014-11-16T12:38:50Z</time>
      </trkpt>
      <trkpt lat="45.48753" lon="5.89458">
        <ele>1339</ele>
        <time>2014-11-16T12:39:06Z</time>
      </trkpt>
      <trkpt lat="45.48761" lon="5.89466">
        <ele>1340</ele>
        <time>2014-11-16T12:39:24Z</time>
      </trkpt>
      <trkpt lat="45.48764" lon="5.89465">
        <ele>1345</ele>
        <time>2014-11-16T12:39:56Z</time>
      </trkpt>
      <trkpt lat="45.48767" lon="5.89466">
        <ele>1346</ele>
        <time>2014-11-16T12:40:04Z</time>
      </trkpt>
      <trkpt lat="45.48776" lon="5.89472">
        <ele>1343</ele>
        <time>2014-11-16T12:40:27Z</time>
      </trkpt>
      <trkpt lat="45.48802" lon="5.89486">
        <ele>1342</ele>
        <time>2014-11-16T12:40:45Z</time>
      </trkpt>
      <trkpt lat="45.4882" lon="5.89497">
        <ele>1343</ele>
        <time>2014-11-16T12:41:01Z</time>
      </trkpt>
      <trkpt lat="45.48828" lon="5.89504">
        <ele>1346</ele>
        <time>2014-11-16T12:41:12Z</time>
      </trkpt>
      <trkpt lat="45.48845" lon="5.89521">
        <ele>1351</ele>
        <time>2014-11-16T12:41:36Z</time>
      </trkpt>
      <trkpt lat="45.4885" lon="5.89518">
        <ele>1352</ele>
        <time>2014-11-16T12:41:42Z</time>
      </trkpt>
      <trkpt lat="45.48862" lon="5.89518">
        <ele>1356</ele>
        <time>2014-11-16T12:41:54Z</time>
      </trkpt>
      <trkpt lat="45.48869" lon="5.89516">
        <ele>1353</ele>
        <time>2014-11-16T12:42:09Z</time>
      </trkpt>
      <trkpt lat="45.48883" lon="5.8951">
        <ele>1363</ele>
        <time>2014-11-16T12:42:30Z</time>
      </trkpt>
      <trkpt lat="45.48898" lon="5.89503">
        <ele>1360</ele>
        <time>2014-11-16T12:42:47Z</time>
      </trkpt>
      <trkpt lat="45.489" lon="5.89499">
        <ele>1362</ele>
        <time>2014-11-16T12:42:56Z</time>
      </trkpt>
      <trkpt lat="45.48909" lon="5.89497">
        <ele>1362</ele>
        <time>2014-11-16T12:43:07Z</time>
      </trkpt>
      <trkpt lat="45.48926" lon="5.89494">
        <ele>1361</ele>
        <time>2014-11-16T12:43:25Z</time>
      </trkpt>
      <trkpt lat="45.48936" lon="5.89492">
        <ele>1360</ele>
        <time>2014-11-16T12:43:45Z</time>
      </trkpt>
      <trkpt lat="45.48953" lon="5.89482">
        <ele>1368</ele>
        <time>2014-11-16T12:44:11Z</time>
      </trkpt>
      <trkpt lat="45.48954" lon="5.89476">
        <ele>1367</ele>
        <time>2014-11-16T12:44:18Z</time>
      </trkpt>
      <trkpt lat="45.4896" lon="5.89469">
        <ele>1368</ele>
        <time>2014-11-16T12:44:31Z</time>
      </trkpt>
      <trkpt lat="45.48965" lon="5.89463">
        <ele>1368</ele>
        <time>2014-11-16T12:44:37Z</time>
      </trkpt>
      <trkpt lat="45.48976" lon="5.89452">
        <ele>1373</ele>
        <time>2014-11-16T12:44:53Z</time>
      </trkpt>
      <trkpt lat="45.48981" lon="5.89452">
        <ele>1376</ele>
        <time>2014-11-16T12:44:59Z</time>
      </trkpt>
      <trkpt lat="45.48996" lon="5.89449">
        <ele>1376</ele>
        <time>2014-11-16T12:45:14Z</time>
      </trkpt>
      <trkpt lat="45.49005" lon="5.89442">
        <ele>1383</ele>
        <time>2014-11-16T12:45:35Z</time>
      </trkpt>
      <trkpt lat="45.49012" lon="5.89437">
        <ele>1386</ele>
        <time>2014-11-16T12:45:50Z</time>
      </trkpt>
      <trkpt lat="45.49016" lon="5.89434">
        <ele>1387</ele>
        <time>2014-11-16T12:45:56Z</time>
      </trkpt>
      <trkpt lat="45.4902" lon="5.89429">
        <ele>1388</ele>
        <time>2014-11-16T12:46:20Z</time>
      </trkpt>
      <trkpt lat="45.4904" lon="5.8942">
        <ele>1388</ele>
        <time>2014-11-16T12:46:43Z</time>
      </trkpt>
      <trkpt lat="45.49049" lon="5.89419">
        <ele>1388</ele>
        <time>2014-11-16T12:46:52Z</time>
      </trkpt>
      <trkpt lat="45.49059" lon="5.89416">
        <ele>1386</ele>
        <time>2014-11-16T12:47:00Z</time>
      </trkpt>
      <trkpt lat="45.49069" lon="5.89408">
        <ele>1389</ele>
        <time>2014-11-16T12:47:10Z</time>
      </trkpt>
      <trkpt lat="45.49111" lon="5.89389">
        <ele>1398</ele>
        <time>2014-11-16T12:47:53Z</time>
      </trkpt>
      <trkpt lat="45.49125" lon="5.89388">
        <ele>1405</ele>
        <time>2014-11-16T12:48:25Z</time>
      </trkpt>
      <trkpt lat="45.49143" lon="5.89385">
        <ele>1412</ele>
        <time>2014-11-16T12:48:55Z</time>
      </trkpt>
      <trkpt lat="45.49181" lon="5.89381">
        <ele>1408</ele>
        <time>2014-11-16T12:49:59Z</time>
      </trkpt>
      <trkpt lat="45.49209" lon="5.89381">
        <ele>1416</ele>
        <time>2014-11-16T12:50:50Z</time>
      </trkpt>
      <trkpt lat="45.49269" lon="5.89418">
        <ele>1421</ele>
        <time>2014-11-16T12:52:21Z</time>
      </trkpt>
      <trkpt lat="45.4928" lon="5.89424">
        <ele>1426</ele>
        <time>2014-11-16T12:52:32Z</time>
      </trkpt>
      <trkpt lat="45.49283" lon="5.89438">
        <ele>1429</ele>
        <time>2014-11-16T12:52:39Z</time>
      </trkpt>
      <trkpt lat="45.4928" lon="5.89437">
        <ele>1431</ele>
        <time>2014-11-16T12:52:41Z</time>
      </trkpt>
      <trkpt lat="45.49282" lon="5.89439">
        <ele>1431</ele>
        <time>2014-11-16T12:52:43Z</time>
      </trkpt>
      <trkpt lat="45.49285" lon="5.89437">
        <ele>1435</ele>
        <time>2014-11-16T12:52:53Z</time>
      </trkpt>
      <trkpt lat="45.49284" lon="5.89442">
        <ele>1426</ele>
        <time>2014-11-16T12:53:13Z</time>
      </trkpt>
      <trkpt lat="45.49286" lon="5.89445">
        <ele>1427</ele>
        <time>2014-11-16T12:53:21Z</time>
      </trkpt>
      <trkpt lat="45.49289" lon="5.89443">
        <ele>1430</ele>
        <time>2014-11-16T12:53:41Z</time>
      </trkpt>
      <trkpt lat="45.49301" lon="5.89443">
        <ele>1435</ele>
        <time>2014-11-16T12:53:52Z</time>
      </trkpt>
      <trkpt lat="45.49314" lon="5.89451">
        <ele>1441</ele>
        <time>2014-11-16T12:54:07Z</time>
      </trkpt>
      <trkpt lat="45.49329" lon="5.89469">
        <ele>1455</ele>
        <time>2014-11-16T12:55:22Z</time>
      </trkpt>
      <trkpt lat="45.49345" lon="5.89482">
        <ele>1457</ele>
        <time>2014-11-16T12:56:00Z</time>
      </trkpt>
      <trkpt lat="45.49352" lon="5.89502">
        <ele>1459</ele>
        <time>2014-11-16T12:56:10Z</time>
      </trkpt>
      <trkpt lat="45.49354" lon="5.89506">
        <ele>1458</ele>
        <time>2014-11-16T12:56:12Z</time>
      </trkpt>
      <trkpt lat="45.49357" lon="5.89513">
        <ele>1456</ele>
        <time>2014-11-16T12:56:17Z</time>
      </trkpt>
      <trkpt lat="45.4936" lon="5.89516">
        <ele>1457</ele>
        <time>2014-11-16T12:56:22Z</time>
      </trkpt>
      <trkpt lat="45.49363" lon="5.89521">
        <ele>1455</ele>
        <time>2014-11-16T12:56:29Z</time>
      </trkpt>
      <trkpt lat="45.49365" lon="5.89524">
        <ele>1457</ele>
        <time>2014-11-16T12:56:32Z</time>
      </trkpt>
      <trkpt lat="45.49368" lon="5.89525">
        <ele>1461</ele>
        <time>2014-11-16T12:56:44Z</time>
      </trkpt>
      <trkpt lat="45.49372" lon="5.89524">
        <ele>1463</ele>
        <time>2014-11-16T12:57:06Z</time>
      </trkpt>
      <trkpt lat="45.49374" lon="5.89533">
        <ele>1465</ele>
        <time>2014-11-16T12:57:14Z</time>
      </trkpt>
      <trkpt lat="45.49377" lon="5.89536">
        <ele>1467</ele>
        <time>2014-11-16T12:57:33Z</time>
      </trkpt>
      <trkpt lat="45.4938" lon="5.89543">
        <ele>1466</ele>
        <time>2014-11-16T12:57:44Z</time>
      </trkpt>
      <trkpt lat="45.49393" lon="5.89558">
        <ele>1468</ele>
        <time>2014-11-16T12:57:58Z</time>
      </trkpt>
      <trkpt lat="45.49397" lon="5.89564">
        <ele>1470</ele>
        <time>2014-11-16T12:58:13Z</time>
      </trkpt>
      <trkpt lat="45.49423" lon="5.89585">
        <ele>1483</ele>
        <time>2014-11-16T12:59:13Z</time>
      </trkpt>
      <trkpt lat="45.49433" lon="5.89598">
        <ele>1484</ele>
        <time>2014-11-16T12:59:59Z</time>
      </trkpt>
      <trkpt lat="45.49444" lon="5.89615">
        <ele>1485</ele>
        <time>2014-11-16T13:00:13Z</time>
      </trkpt>
      <trkpt lat="45.49447" lon="5.89618">
        <ele>1487</ele>
        <time>2014-11-16T13:00:33Z</time>
      </trkpt>
      <trkpt lat="45.49463" lon="5.89626">
        <ele>1484</ele>
        <time>2014-11-16T13:00:46Z</time>
      </trkpt>
      <trkpt lat="45.49468" lon="5.89626">
        <ele>1485</ele>
        <time>2014-11-16T13:00:54Z</time>
      </trkpt>
      <trkpt lat="45.49476" lon="5.89632">
        <ele>1483</ele>
        <time>2014-11-16T13:01:01Z</time>
      </trkpt>
      <trkpt lat="45.49482" lon="5.89629">
        <ele>1484</ele>
        <time>2014-11-16T13:01:07Z</time>
      </trkpt>
      <trkpt lat="45.49506" lon="5.89628">
        <ele>1486</ele>
        <time>2014-11-16T13:01:54Z</time>
      </trkpt>
      <trkpt lat="45.49524" lon="5.89629">
        <ele>1484</ele>
        <time>2014-11-16T13:02:04Z</time>
      </trkpt>
      <trkpt lat="45.49528" lon="5.89631">
        <ele>1484</ele>
        <time>2014-11-16T13:02:12Z</time>
      </trkpt>
      <trkpt lat="45.49534" lon="5.89627">
        <ele>1491</ele>
        <time>2014-11-16T13:04:36Z</time>
      </trkpt>
      <trkpt lat="45.4954" lon="5.89621">
        <ele>1494</ele>
        <time>2014-11-16T13:04:42Z</time>
      </trkpt>
      <trkpt lat="45.49547" lon="5.89622">
        <ele>1497</ele>
        <time>2014-11-16T13:04:54Z</time>
      </trkpt>
      <trkpt lat="45.49551" lon="5.8962">
        <ele>1495</ele>
        <time>2014-11-16T13:05:17Z</time>
      </trkpt>
      <trkpt lat="45.49561" lon="5.89614">
        <ele>1500</ele>
        <time>2014-11-16T13:05:34Z</time>
      </trkpt>
      <trkpt lat="45.49563" lon="5.8961">
        <ele>1502</ele>
        <time>2014-11-16T13:06:08Z</time>
      </trkpt>
      <trkpt lat="45.49568" lon="5.89599">
        <ele>1504</ele>
        <time>2014-11-16T13:06:13Z</time>
      </trkpt>
      <trkpt lat="45.49578" lon="5.89586">
        <ele>1508</ele>
        <time>2014-11-16T13:06:27Z</time>
      </trkpt>
      <trkpt lat="45.49586" lon="5.89576">
        <ele>1511</ele>
        <time>2014-11-16T13:06:40Z</time>
      </trkpt>
      <trkpt lat="45.49594" lon="5.89549">
        <ele>1510</ele>
        <time>2014-11-16T13:07:19Z</time>
      </trkpt>
      <trkpt lat="45.496" lon="5.89532">
        <ele>1516</ele>
        <time>2014-11-16T13:07:40Z</time>
      </trkpt>
      <trkpt lat="45.496" lon="5.89527">
        <ele>1516</ele>
        <time>2014-11-16T13:07:45Z</time>
      </trkpt>
      <trkpt lat="45.49608" lon="5.89521">
        <ele>1515</ele>
        <time>2014-11-16T13:08:07Z</time>
      </trkpt>
      <trkpt lat="45.49609" lon="5.89514">
        <ele>1517</ele>
        <time>2014-11-16T13:08:28Z</time>
      </trkpt>
      <trkpt lat="45.49613" lon="5.89502">
        <ele>1519</ele>
        <time>2014-11-16T13:08:49Z</time>
      </trkpt>
      <trkpt lat="45.49622" lon="5.8947">
        <ele>1524</ele>
        <time>2014-11-16T13:09:10Z</time>
      </trkpt>
      <trkpt lat="45.49626" lon="5.89459">
        <ele>1527</ele>
        <time>2014-11-16T13:09:31Z</time>
      </trkpt>
      <trkpt lat="45.49626" lon="5.89451">
        <ele>1529</ele>
        <time>2014-11-16T13:09:43Z</time>
      </trkpt>
      <trkpt lat="45.49631" lon="5.8944">
        <ele>1526</ele>
        <time>2014-11-16T13:09:52Z</time>
      </trkpt>
      <trkpt lat="45.49637" lon="5.89423">
        <ele>1525</ele>
        <time>2014-11-16T13:10:13Z</time>
      </trkpt>
      <trkpt lat="45.49646" lon="5.89411">
        <ele>1527</ele>
        <time>2014-11-16T13:10:27Z</time>
      </trkpt>
      <trkpt lat="45.49654" lon="5.894">
        <ele>1526</ele>
        <time>2014-11-16T13:10:40Z</time>
      </trkpt>
      <trkpt lat="45.4966" lon="5.89389">
        <ele>1531</ele>
        <time>2014-11-16T13:11:04Z</time>
      </trkpt>
      <trkpt lat="45.49656" lon="5.89379">
        <ele>1532</ele>
        <time>2014-11-16T13:11:10Z</time>
      </trkpt>
      <trkpt lat="45.49659" lon="5.8938">
        <ele>1531</ele>
        <time>2014-11-16T13:11:18Z</time>
      </trkpt>
      <trkpt lat="45.49663" lon="5.89386">
        <ele>1530</ele>
        <time>2014-11-16T13:11:23Z</time>
      </trkpt>
      <trkpt lat="45.49666" lon="5.89389">
        <ele>1528</ele>
        <time>2014-11-16T13:11:25Z</time>
      </trkpt>
      <trkpt lat="45.49662" lon="5.89389">
        <ele>1531</ele>
        <time>2014-11-16T13:11:48Z</time>
      </trkpt>
      <trkpt lat="45.49655" lon="5.89389">
        <ele>1530</ele>
        <time>2014-11-16T13:12:03Z</time>
      </trkpt>
      <trkpt lat="45.49657" lon="5.89381">
        <ele>1529</ele>
        <time>2014-11-16T13:12:14Z</time>
      </trkpt>
      <trkpt lat="45.49656" lon="5.89394">
        <ele>1531</ele>
        <time>2014-11-16T13:13:39Z</time>
      </trkpt>
      <trkpt lat="45.49649" lon="5.89399">
        <ele>1532</ele>
        <time>2014-11-16T13:14:12Z</time>
      </trkpt>
      <trkpt lat="45.49638" lon="5.89426">
        <ele>1528</ele>
        <time>2014-11-16T13:14:59Z</time>
      </trkpt>
      <trkpt lat="45.4963" lon="5.89457">
        <ele>1519</ele>
        <time>2014-11-16T13:15:19Z</time>
      </trkpt>
      <trkpt lat="45.49624" lon="5.89497">
        <ele>1512</ele>
        <time>2014-11-16T13:15:54Z</time>
      </trkpt>
      <trkpt lat="45.49625" lon="5.89502">
        <ele>1510</ele>
        <time>2014-11-16T13:16:01Z</time>
      </trkpt>
      <trkpt lat="45.49626" lon="5.8951">
        <ele>1508</ele>
        <time>2014-11-16T13:16:08Z</time>
      </trkpt>
      <trkpt lat="45.49621" lon="5.89517">
        <ele>1509</ele>
        <time>2014-11-16T13:16:15Z</time>
      </trkpt>
      <trkpt lat="45.49616" lon="5.89522">
        <ele>1507</ele>
        <time>2014-11-16T13:16:20Z</time>
      </trkpt>
      <trkpt lat="45.49613" lon="5.89526">
        <ele>1506</ele>
        <time>2014-11-16T13:16:24Z</time>
      </trkpt>
      <trkpt lat="45.49607" lon="5.89538">
        <ele>1505</ele>
        <time>2014-11-16T13:16:34Z</time>
      </trkpt>
      <trkpt lat="45.49606" lon="5.89545">
        <ele>1505</ele>
        <time>2014-11-16T13:16:39Z</time>
      </trkpt>
      <trkpt lat="45.49604" lon="5.89553">
        <ele>1507</ele>
        <time>2014-11-16T13:16:49Z</time>
      </trkpt>
      <trkpt lat="45.49602" lon="5.89561">
        <ele>1503</ele>
        <time>2014-11-16T13:16:59Z</time>
      </trkpt>
      <trkpt lat="45.49586" lon="5.89585">
        <ele>1499</ele>
        <time>2014-11-16T13:17:54Z</time>
      </trkpt>
      <trkpt lat="45.49584" lon="5.89591">
        <ele>1499</ele>
        <time>2014-11-16T13:18:38Z</time>
      </trkpt>
      <trkpt lat="45.49537" lon="5.89651">
        <ele>1492</ele>
        <time>2014-11-16T13:20:04Z</time>
      </trkpt>
      <trkpt lat="45.49488" lon="5.89683">
        <ele>1496</ele>
        <time>2014-11-16T13:21:17Z</time>
      </trkpt>
      <trkpt lat="45.49415" lon="5.89672">
        <ele>1503</ele>
        <time>2014-11-16T13:23:20Z</time>
      </trkpt>
      <trkpt lat="45.49406" lon="5.89676">
        <ele>1500</ele>
        <time>2014-11-16T13:23:39Z</time>
      </trkpt>
      <trkpt lat="45.49399" lon="5.89678">
        <ele>1497</ele>
        <time>2014-11-16T13:24:14Z</time>
      </trkpt>
      <trkpt lat="45.49387" lon="5.89685">
        <ele>1502</ele>
        <time>2014-11-16T13:24:39Z</time>
      </trkpt>
      <trkpt lat="45.49376" lon="5.89685">
        <ele>1500</ele>
        <time>2014-11-16T13:24:59Z</time>
      </trkpt>
      <trkpt lat="45.49366" lon="5.89689">
        <ele>1498</ele>
        <time>2014-11-16T13:25:17Z</time>
      </trkpt>
      <trkpt lat="45.4932" lon="5.89746">
        <ele>1515</ele>
        <time>2014-11-16T13:27:14Z</time>
      </trkpt>
      <trkpt lat="45.49314" lon="5.89754">
        <ele>1514</ele>
        <time>2014-11-16T13:27:36Z</time>
      </trkpt>
      <trkpt lat="45.49312" lon="5.89759">
        <ele>1520</ele>
        <time>2014-11-16T13:27:57Z</time>
      </trkpt>
      <trkpt lat="45.49306" lon="5.89769">
        <ele>1528</ele>
        <time>2014-11-16T13:28:20Z</time>
      </trkpt>
      <trkpt lat="45.49303" lon="5.89763">
        <ele>1530</ele>
        <time>2014-11-16T13:28:32Z</time>
      </trkpt>
      <trkpt lat="45.49303" lon="5.89759">
        <ele>1531</ele>
        <time>2014-11-16T13:30:43Z</time>
      </trkpt>
      <trkpt lat="45.49294" lon="5.89752">
        <ele>1532</ele>
        <time>2014-11-16T13:30:48Z</time>
      </trkpt>
      <trkpt lat="45.49292" lon="5.89746">
        <ele>1536</ele>
        <time>2014-11-16T13:30:53Z</time>
      </trkpt>
      <trkpt lat="45.49289" lon="5.89745">
        <ele>1534</ele>
        <time>2014-11-16T13:30:56Z</time>
      </trkpt>
      <trkpt lat="45.49285" lon="5.89737">
        <ele>1536</ele>
        <time>2014-11-16T13:31:13Z</time>
      </trkpt>
      <trkpt lat="45.49289" lon="5.89737">
        <ele>1539</ele>
        <time>2014-11-16T13:31:17Z</time>
      </trkpt>
      <trkpt lat="45.49288" lon="5.89733">
        <ele>1540</ele>
        <time>2014-11-16T13:31:46Z</time>
      </trkpt>
      <trkpt lat="45.49288" lon="5.89729">
        <ele>1547</ele>
        <time>2014-11-16T13:31:57Z</time>
      </trkpt>
      <trkpt lat="45.4928" lon="5.8972">
        <ele>1551</ele>
        <time>2014-11-16T13:32:23Z</time>
      </trkpt>
      <trkpt lat="45.49277" lon="5.89716">
        <ele>1552</ele>
        <time>2014-11-16T13:32:26Z</time>
      </trkpt>
      <trkpt lat="45.49266" lon="5.89711">
        <ele>1553</ele>
        <time>2014-11-16T13:32:52Z</time>
      </trkpt>
      <trkpt lat="45.49259" lon="5.89709">
        <ele>1563</ele>
        <time>2014-11-16T13:33:52Z</time>
      </trkpt>
      <trkpt lat="45.49265" lon="5.89712">
        <ele>1560</ele>
        <time>2014-11-16T13:33:59Z</time>
      </trkpt>
      <trkpt lat="45.49266" lon="5.89717">
        <ele>1565</ele>
        <time>2014-11-16T13:34:29Z</time>
      </trkpt>
      <trkpt lat="45.49266" lon="5.8973">
        <ele>1565</ele>
        <time>2014-11-16T13:35:56Z</time>
      </trkpt>
      <trkpt lat="45.49263" lon="5.89732">
        <ele>1567</ele>
        <time>2014-11-16T13:36:11Z</time>
      </trkpt>
      <trkpt lat="45.49262" lon="5.89726">
        <ele>1574</ele>
        <time>2014-11-16T13:36:21Z</time>
      </trkpt>
      <trkpt lat="45.49259" lon="5.89727">
        <ele>1574</ele>
        <time>2014-11-16T13:36:36Z</time>
      </trkpt>
      <trkpt lat="45.49251" lon="5.89761">
        <ele>1529.43359375</ele>
      </trkpt>
      <trkpt lat="45.4922" lon="5.89757">
        <ele>1541.19921875</ele>
      </trkpt>
      <trkpt lat="45.49204" lon="5.89737">
        <ele>1544.08984375</ele>
      </trkpt>
      <trkpt lat="45.49179" lon="5.89741">
        <ele>1540.6171875</ele>
      </trkpt>
      <trkpt lat="45.4914" lon="5.89769">
        <ele>1537.59765625</ele>
      </trkpt>
      <trkpt lat="45.49117" lon="5.89778">
        <ele>1532.2421875</ele>
      </trkpt>
      <trkpt lat="45.49071" lon="5.89903">
        <ele>1538.61328125</ele>
      </trkpt>
      <trkpt lat="45.49048" lon="5.90049">
        <ele>1532.30078125</ele>
      </trkpt>
      <trkpt lat="45.49042" lon="5.90104">
        <ele>1534.921875</ele>
      </trkpt>
      <trkpt lat="45.48991" lon="5.90205">
        <ele>1519.66015625</ele>
      </trkpt>
      <trkpt lat="45.48958" lon="5.90225">
        <ele>1517.015625</ele>
      </trkpt>
      <trkpt lat="45.4894" lon="5.90225">
        <ele>1514.28515625</ele>
      </trkpt>
      <trkpt lat="45.48882" lon="5.90291">
        <ele>1503.58203125</ele>
      </trkpt>
      <trkpt lat="45.48811" lon="5.90371">
        <ele>1497.890625</ele>
      </trkpt>
      <trkpt lat="45.48776" lon="5.9041">
        <ele>1487.52734375</ele>
      </trkpt>
      <trkpt lat="45.48724" lon="5.90472">
        <ele>1482.8515625</ele>
      </trkpt>
      <trkpt lat="45.48727" lon="5.90449">
        <ele>1480.9921875</ele>
      </trkpt>
      <trkpt lat="45.48707" lon="5.90451">
        <ele>1478.140625</ele>
      </trkpt>
      <trkpt lat="45.48731" lon="5.90384">
        <ele>1462.796875</ele>
      </trkpt>
      <trkpt lat="45.48677" lon="5.90408">
        <ele>1449.26953125</ele>
      </trkpt>
      <trkpt lat="45.4868" lon="5.90382">
        <ele>1437.3984375</ele>
      </trkpt>
      <trkpt lat="45.48599" lon="5.90396">
        <ele>1411.52734375</ele>
      </trkpt>
      <trkpt lat="45.48562" lon="5.90409">
        <ele>1428</ele>
        <time>2014-11-16T14:09:35Z</time>
      </trkpt>
      <trkpt lat="45.48564" lon="5.90412">
        <ele>1422</ele>
        <time>2014-11-16T14:09:37Z</time>
      </trkpt>
      <trkpt lat="45.4856" lon="5.90407">
        <ele>1429</ele>
        <time>2014-11-16T14:09:44Z</time>
      </trkpt>
      <trkpt lat="45.48557" lon="5.90404">
        <ele>1432</ele>
        <time>2014-11-16T14:09:47Z</time>
      </trkpt>
      <trkpt lat="45.48553" lon="5.90401">
        <ele>1440</ele>
        <time>2014-11-16T14:10:17Z</time>
      </trkpt>
      <trkpt lat="45.48539" lon="5.90406">
        <ele>1447</ele>
        <time>2014-11-16T14:11:18Z</time>
      </trkpt>
      <trkpt lat="45.48535" lon="5.90404">
        <ele>1448</ele>
        <time>2014-11-16T14:11:23Z</time>
      </trkpt>
      <trkpt lat="45.48531" lon="5.90405">
        <ele>1445</ele>
        <time>2014-11-16T14:11:35Z</time>
      </trkpt>
      <trkpt lat="45.4852" lon="5.904">
        <ele>1445</ele>
        <time>2014-11-16T14:11:55Z</time>
      </trkpt>
      <trkpt lat="45.48516" lon="5.90387">
        <ele>1418</ele>
        <time>2014-11-16T14:12:19Z</time>
      </trkpt>
      <trkpt lat="45.48526" lon="5.90369">
        <ele>1410</ele>
        <time>2014-11-16T14:12:45Z</time>
      </trkpt>
      <trkpt lat="45.48525" lon="5.90359">
        <ele>1413</ele>
        <time>2014-11-16T14:12:55Z</time>
      </trkpt>
      <trkpt lat="45.48518" lon="5.90356">
        <ele>1405</ele>
        <time>2014-11-16T14:13:16Z</time>
      </trkpt>
      <trkpt lat="45.48503" lon="5.90352">
        <ele>1396</ele>
        <time>2014-11-16T14:13:45Z</time>
      </trkpt>
      <trkpt lat="45.48491" lon="5.90351">
        <ele>1388</ele>
        <time>2014-11-16T14:13:56Z</time>
      </trkpt>
      <trkpt lat="45.48495" lon="5.9034">
        <ele>1387</ele>
        <time>2014-11-16T14:14:18Z</time>
      </trkpt>
      <trkpt lat="45.48496" lon="5.90335">
        <ele>1386</ele>
        <time>2014-11-16T14:14:22Z</time>
      </trkpt>
      <trkpt lat="45.48498" lon="5.90332">
        <ele>1385</ele>
        <time>2014-11-16T14:14:25Z</time>
      </trkpt>
      <trkpt lat="45.48504" lon="5.90321">
        <ele>1380</ele>
        <time>2014-11-16T14:14:35Z</time>
      </trkpt>
      <trkpt lat="45.485" lon="5.90315">
        <ele>1379</ele>
        <time>2014-11-16T14:14:45Z</time>
      </trkpt>
      <trkpt lat="45.48492" lon="5.90309">
        <ele>1374</ele>
        <time>2014-11-16T14:14:55Z</time>
      </trkpt>
      <trkpt lat="45.4849" lon="5.90307">
        <ele>1375</ele>
        <time>2014-11-16T14:14:59Z</time>
      </trkpt>
      <trkpt lat="45.48483" lon="5.90305">
        <ele>1367</ele>
        <time>2014-11-16T14:15:11Z</time>
      </trkpt>
      <trkpt lat="45.4847" lon="5.90304">
        <ele>1367</ele>
        <time>2014-11-16T14:15:21Z</time>
      </trkpt>
      <trkpt lat="45.48464" lon="5.90304">
        <ele>1363</ele>
        <time>2014-11-16T14:15:28Z</time>
      </trkpt>
      <trkpt lat="45.48461" lon="5.90306">
        <ele>1362</ele>
        <time>2014-11-16T14:15:32Z</time>
      </trkpt>
      <trkpt lat="45.48445" lon="5.903">
        <ele>1367</ele>
        <time>2014-11-16T14:15:43Z</time>
      </trkpt>
      <trkpt lat="45.4844" lon="5.90296">
        <ele>1367</ele>
        <time>2014-11-16T14:15:47Z</time>
      </trkpt>
      <trkpt lat="45.48433" lon="5.90295">
        <ele>1362</ele>
        <time>2014-11-16T14:15:55Z</time>
      </trkpt>
      <trkpt lat="45.48426" lon="5.90294">
        <ele>1360</ele>
        <time>2014-11-16T14:16:03Z</time>
      </trkpt>
      <trkpt lat="45.48416" lon="5.90287">
        <ele>1360</ele>
        <time>2014-11-16T14:16:11Z</time>
      </trkpt>
      <trkpt lat="45.48399" lon="5.90285">
        <ele>1348</ele>
        <time>2014-11-16T14:16:29Z</time>
      </trkpt>
      <trkpt lat="45.4839" lon="5.90281">
        <ele>1347</ele>
        <time>2014-11-16T14:16:34Z</time>
      </trkpt>
      <trkpt lat="45.48393" lon="5.90279">
        <ele>1348</ele>
        <time>2014-11-16T14:16:35Z</time>
      </trkpt>
      <trkpt lat="45.48392" lon="5.90273">
        <ele>1355</ele>
        <time>2014-11-16T14:17:16Z</time>
      </trkpt>
      <trkpt lat="45.48389" lon="5.90276">
        <ele>1355</ele>
        <time>2014-11-16T14:17:18Z</time>
      </trkpt>
      <trkpt lat="45.48375" lon="5.90276">
        <ele>1349</ele>
        <time>2014-11-16T14:17:31Z</time>
      </trkpt>
      <trkpt lat="45.48355" lon="5.90277">
        <ele>1349</ele>
        <time>2014-11-16T14:17:55Z</time>
      </trkpt>
      <trkpt lat="45.4832" lon="5.90259">
        <ele>1343</ele>
        <time>2014-11-16T14:18:32Z</time>
      </trkpt>
      <trkpt lat="45.48314" lon="5.90259">
        <ele>1341</ele>
        <time>2014-11-16T14:18:37Z</time>
      </trkpt>
      <trkpt lat="45.48311" lon="5.90258">
        <ele>1340</ele>
        <time>2014-11-16T14:18:48Z</time>
      </trkpt>
      <trkpt lat="45.48308" lon="5.90259">
        <ele>1336</ele>
        <time>2014-11-16T14:19:04Z</time>
      </trkpt>
      <trkpt lat="45.48297" lon="5.90256">
        <ele>1339</ele>
        <time>2014-11-16T14:19:11Z</time>
      </trkpt>
      <trkpt lat="45.48291" lon="5.90252">
        <ele>1338</ele>
        <time>2014-11-16T14:19:16Z</time>
      </trkpt>
      <trkpt lat="45.48245" lon="5.90258">
        <ele>1335</ele>
        <time>2014-11-16T14:19:55Z</time>
      </trkpt>
      <trkpt lat="45.48226" lon="5.9026">
        <ele>1336</ele>
        <time>2014-11-16T14:20:10Z</time>
      </trkpt>
      <trkpt lat="45.48212" lon="5.90256">
        <ele>1339</ele>
        <time>2014-11-16T14:20:20Z</time>
      </trkpt>
      <trkpt lat="45.4819" lon="5.9026">
        <ele>1339</ele>
        <time>2014-11-16T14:20:41Z</time>
      </trkpt>
      <trkpt lat="45.4817" lon="5.90263">
        <ele>1331</ele>
        <time>2014-11-16T14:20:56Z</time>
      </trkpt>
      <trkpt lat="45.48165" lon="5.90267">
        <ele>1330</ele>
        <time>2014-11-16T14:21:04Z</time>
      </trkpt>
      <trkpt lat="45.4816" lon="5.90274">
        <ele>1329</ele>
        <time>2014-11-16T14:21:13Z</time>
      </trkpt>
      <trkpt lat="45.48143" lon="5.90265">
        <ele>1324</ele>
        <time>2014-11-16T14:21:35Z</time>
      </trkpt>
      <trkpt lat="45.4814" lon="5.90262">
        <ele>1323</ele>
        <time>2014-11-16T14:21:41Z</time>
      </trkpt>
      <trkpt lat="45.48134" lon="5.90256">
        <ele>1319</ele>
        <time>2014-11-16T14:21:50Z</time>
      </trkpt>
      <trkpt lat="45.48129" lon="5.90251">
        <ele>1316</ele>
        <time>2014-11-16T14:21:58Z</time>
      </trkpt>
      <trkpt lat="45.48123" lon="5.90245">
        <ele>1316</ele>
        <time>2014-11-16T14:22:04Z</time>
      </trkpt>
      <trkpt lat="45.48101" lon="5.90238">
        <ele>1312</ele>
        <time>2014-11-16T14:22:31Z</time>
      </trkpt>
      <trkpt lat="45.48092" lon="5.90238">
        <ele>1312</ele>
        <time>2014-11-16T14:22:46Z</time>
      </trkpt>
      <trkpt lat="45.48073" lon="5.90239">
        <ele>1303</ele>
        <time>2014-11-16T14:23:15Z</time>
      </trkpt>
      <trkpt lat="45.4807" lon="5.90235">
        <ele>1299</ele>
        <time>2014-11-16T14:23:19Z</time>
      </trkpt>
      <trkpt lat="45.48067" lon="5.90233">
        <ele>1299</ele>
        <time>2014-11-16T14:23:23Z</time>
      </trkpt>
      <trkpt lat="45.48061" lon="5.90226">
        <ele>1295</ele>
        <time>2014-11-16T14:23:38Z</time>
      </trkpt>
      <trkpt lat="45.48045" lon="5.90209">
        <ele>1292</ele>
        <time>2014-11-16T14:23:55Z</time>
      </trkpt>
      <trkpt lat="45.48041" lon="5.90206">
        <ele>1289</ele>
        <time>2014-11-16T14:24:08Z</time>
      </trkpt>
      <trkpt lat="45.48036" lon="5.90202">
        <ele>1289</ele>
        <time>2014-11-16T14:24:20Z</time>
      </trkpt>
      <trkpt lat="45.4803" lon="5.90196">
        <ele>1286</ele>
        <time>2014-11-16T14:24:26Z</time>
      </trkpt>
      <trkpt lat="45.48028" lon="5.90193">
        <ele>1285</ele>
        <time>2014-11-16T14:24:32Z</time>
      </trkpt>
      <trkpt lat="45.48024" lon="5.90192">
        <ele>1288</ele>
        <time>2014-11-16T14:24:40Z</time>
      </trkpt>
      <trkpt lat="45.4802" lon="5.90191">
        <ele>1287</ele>
        <time>2014-11-16T14:24:45Z</time>
      </trkpt>
      <trkpt lat="45.48017" lon="5.9019">
        <ele>1289</ele>
        <time>2014-11-16T14:24:48Z</time>
      </trkpt>
      <trkpt lat="45.47997" lon="5.9019">
        <ele>1280</ele>
        <time>2014-11-16T14:25:10Z</time>
      </trkpt>
      <trkpt lat="45.47986" lon="5.90187">
        <ele>1278</ele>
        <time>2014-11-16T14:25:23Z</time>
      </trkpt>
      <trkpt lat="45.47971" lon="5.9018">
        <ele>1276</ele>
        <time>2014-11-16T14:25:38Z</time>
      </trkpt>
      <trkpt lat="45.4797" lon="5.90177">
        <ele>1274</ele>
        <time>2014-11-16T14:25:45Z</time>
      </trkpt>
      <trkpt lat="45.47966" lon="5.90175">
        <ele>1270</ele>
        <time>2014-11-16T14:25:52Z</time>
      </trkpt>
      <trkpt lat="45.4796" lon="5.90164">
        <ele>1269</ele>
        <time>2014-11-16T14:25:58Z</time>
      </trkpt>
      <trkpt lat="45.47956" lon="5.90162">
        <ele>1269</ele>
        <time>2014-11-16T14:26:01Z</time>
      </trkpt>
      <trkpt lat="45.47931" lon="5.90164">
        <ele>1265</ele>
        <time>2014-11-16T14:26:28Z</time>
      </trkpt>
      <trkpt lat="45.47927" lon="5.90165">
        <ele>1262</ele>
        <time>2014-11-16T14:26:32Z</time>
      </trkpt>
      <trkpt lat="45.4791" lon="5.90167">
        <ele>1260</ele>
        <time>2014-11-16T14:26:49Z</time>
      </trkpt>
      <trkpt lat="45.47907" lon="5.90168">
        <ele>1256</ele>
        <time>2014-11-16T14:26:56Z</time>
      </trkpt>
      <trkpt lat="45.47905" lon="5.9017">
        <ele>1255</ele>
        <time>2014-11-16T14:27:01Z</time>
      </trkpt>
      <trkpt lat="45.47887" lon="5.90192">
        <ele>1250</ele>
        <time>2014-11-16T14:27:27Z</time>
      </trkpt>
      <trkpt lat="45.47888" lon="5.90199">
        <ele>1248</ele>
        <time>2014-11-16T14:27:45Z</time>
      </trkpt>
      <trkpt lat="45.4789" lon="5.90208">
        <ele>1248</ele>
        <time>2014-11-16T14:27:49Z</time>
      </trkpt>
      <trkpt lat="45.47891" lon="5.90219">
        <ele>1237</ele>
        <time>2014-11-16T14:27:55Z</time>
      </trkpt>
      <trkpt lat="45.47888" lon="5.90255">
        <ele>1233</ele>
        <time>2014-11-16T14:28:14Z</time>
      </trkpt>
      <trkpt lat="45.47884" lon="5.90277">
        <ele>1231</ele>
        <time>2014-11-16T14:28:25Z</time>
      </trkpt>
      <trkpt lat="45.4788" lon="5.90311">
        <ele>1230</ele>
        <time>2014-11-16T14:28:46Z</time>
      </trkpt>
      <trkpt lat="45.47879" lon="5.9032">
        <ele>1230</ele>
        <time>2014-11-16T14:28:51Z</time>
      </trkpt>
      <trkpt lat="45.47877" lon="5.90365">
        <ele>1228</ele>
        <time>2014-11-16T14:29:17Z</time>
      </trkpt>
      <trkpt lat="45.47877" lon="5.90375">
        <ele>1224</ele>
        <time>2014-11-16T14:29:25Z</time>
      </trkpt>
      <trkpt lat="45.47876" lon="5.90413">
        <ele>1227</ele>
        <time>2014-11-16T14:29:46Z</time>
      </trkpt>
      <trkpt lat="45.47873" lon="5.90426">
        <ele>1226</ele>
        <time>2014-11-16T14:29:54Z</time>
      </trkpt>
      <trkpt lat="45.47873" lon="5.90437">
        <ele>1223</ele>
        <time>2014-11-16T14:29:59Z</time>
      </trkpt>
      <trkpt lat="45.47869" lon="5.90474">
        <ele>1227</ele>
        <time>2014-11-16T14:30:20Z</time>
      </trkpt>
      <trkpt lat="45.4787" lon="5.90506">
        <ele>1233</ele>
        <time>2014-11-16T14:30:41Z</time>
      </trkpt>
      <trkpt lat="45.47872" lon="5.90529">
        <ele>1233</ele>
        <time>2014-11-16T14:30:54Z</time>
      </trkpt>
      <trkpt lat="45.47876" lon="5.90543">
        <ele>1234</ele>
        <time>2014-11-16T14:31:01Z</time>
      </trkpt>
      <trkpt lat="45.47881" lon="5.90591">
        <ele>1229</ele>
        <time>2014-11-16T14:31:29Z</time>
      </trkpt>
      <trkpt lat="45.47881" lon="5.90602">
        <ele>1227</ele>
        <time>2014-11-16T14:31:36Z</time>
      </trkpt>
      <trkpt lat="45.47888" lon="5.90637">
        <ele>1227</ele>
        <time>2014-11-16T14:31:56Z</time>
      </trkpt>
      <trkpt lat="45.47889" lon="5.90645">
        <ele>1228</ele>
        <time>2014-11-16T14:32:02Z</time>
      </trkpt>
      <trkpt lat="45.47893" lon="5.90652">
        <ele>1223</ele>
        <time>2014-11-16T14:32:08Z</time>
      </trkpt>
      <trkpt lat="45.47896" lon="5.90664">
        <ele>1221</ele>
        <time>2014-11-16T14:32:16Z</time>
      </trkpt>
      <trkpt lat="45.47898" lon="5.90669">
        <ele>1220</ele>
        <time>2014-11-16T14:32:19Z</time>
      </trkpt>
      <trkpt lat="45.47904" lon="5.90682">
        <ele>1216</ele>
        <time>2014-11-16T14:32:28Z</time>
      </trkpt>
      <trkpt lat="45.47906" lon="5.90686">
        <ele>1215</ele>
        <time>2014-11-16T14:32:31Z</time>
      </trkpt>
      <trkpt lat="45.47915" lon="5.90717">
        <ele>1222</ele>
        <time>2014-11-16T14:32:50Z</time>
      </trkpt>
      <trkpt lat="45.47916" lon="5.90732">
        <ele>1223</ele>
        <time>2014-11-16T14:32:57Z</time>
      </trkpt>
      <trkpt lat="45.47919" lon="5.90759">
        <ele>1218</ele>
        <time>2014-11-16T14:33:13Z</time>
      </trkpt>
      <trkpt lat="45.4792" lon="5.90769">
        <ele>1223</ele>
        <time>2014-11-16T14:33:18Z</time>
      </trkpt>
      <trkpt lat="45.47919" lon="5.90774">
        <ele>1223</ele>
        <time>2014-11-16T14:33:22Z</time>
      </trkpt>
      <trkpt lat="45.47914" lon="5.90789">
        <ele>1222</ele>
        <time>2014-11-16T14:33:31Z</time>
      </trkpt>
      <trkpt lat="45.47911" lon="5.90813">
        <ele>1222</ele>
        <time>2014-11-16T14:33:50Z</time>
      </trkpt>
      <trkpt lat="45.47912" lon="5.90818">
        <ele>1221</ele>
        <time>2014-11-16T14:33:53Z</time>
      </trkpt>
      <trkpt lat="45.47912" lon="5.90828">
        <ele>1219</ele>
        <time>2014-11-16T14:33:59Z</time>
      </trkpt>
      <trkpt lat="45.47927" lon="5.90875">
        <ele>1207</ele>
        <time>2014-11-16T14:34:32Z</time>
      </trkpt>
      <trkpt lat="45.47932" lon="5.90885">
        <ele>1203</ele>
        <time>2014-11-16T14:34:39Z</time>
      </trkpt>
      <trkpt lat="45.47934" lon="5.90895">
        <ele>1204</ele>
        <time>2014-11-16T14:34:44Z</time>
      </trkpt>
      <trkpt lat="45.47939" lon="5.90911">
        <ele>1205</ele>
        <time>2014-11-16T14:34:55Z</time>
      </trkpt>
      <trkpt lat="45.47943" lon="5.90936">
        <ele>1204</ele>
        <time>2014-11-16T14:35:10Z</time>
      </trkpt>
      <trkpt lat="45.47945" lon="5.90955">
        <ele>1199</ele>
        <time>2014-11-16T14:35:21Z</time>
      </trkpt>
      <trkpt lat="45.47952" lon="5.91004">
        <ele>1199</ele>
        <time>2014-11-16T14:35:53Z</time>
      </trkpt>
      <trkpt lat="45.47954" lon="5.91008">
        <ele>1200</ele>
        <time>2014-11-16T14:35:56Z</time>
      </trkpt>
      <trkpt lat="45.47955" lon="5.91012">
        <ele>1199</ele>
        <time>2014-11-16T14:35:59Z</time>
      </trkpt>
      <trkpt lat="45.47965" lon="5.91053">
        <ele>1197</ele>
        <time>2014-11-16T14:36:26Z</time>
      </trkpt>
      <trkpt lat="45.47966" lon="5.91068">
        <ele>1195</ele>
        <time>2014-11-16T14:36:34Z</time>
      </trkpt>
      <trkpt lat="45.47968" lon="5.91076">
        <ele>1195</ele>
        <time>2014-11-16T14:36:39Z</time>
      </trkpt>
      <trkpt lat="45.4798" lon="5.91099">
        <ele>1194</ele>
        <time>2014-11-16T14:36:55Z</time>
      </trkpt>
      <trkpt lat="45.47997" lon="5.91133">
        <ele>1191</ele>
        <time>2014-11-16T14:37:21Z</time>
      </trkpt>
      <trkpt lat="45.48" lon="5.91142">
        <ele>1189</ele>
        <time>2014-11-16T14:37:27Z</time>
      </trkpt>
      <trkpt lat="45.48008" lon="5.91165">
        <ele>1190</ele>
        <time>2014-11-16T14:37:42Z</time>
      </trkpt>
      <trkpt lat="45.4801" lon="5.91169">
        <ele>1188</ele>
        <time>2014-11-16T14:37:45Z</time>
      </trkpt>
      <trkpt lat="45.48014" lon="5.91181">
        <ele>1183</ele>
        <time>2014-11-16T14:37:55Z</time>
      </trkpt>
      <trkpt lat="45.48015" lon="5.91202">
        <ele>1181</ele>
        <time>2014-11-16T14:38:10Z</time>
      </trkpt>
      <trkpt lat="45.48016" lon="5.9123">
        <ele>1184</ele>
        <time>2014-11-16T14:38:27Z</time>
      </trkpt>
      <trkpt lat="45.48016" lon="5.91239">
        <ele>1184</ele>
        <time>2014-11-16T14:38:33Z</time>
      </trkpt>
      <trkpt lat="45.48017" lon="5.91267">
        <ele>1182</ele>
        <time>2014-11-16T14:38:54Z</time>
      </trkpt>
      <trkpt lat="45.48016" lon="5.91309">
        <ele>1178</ele>
        <time>2014-11-16T14:39:18Z</time>
      </trkpt>
      <trkpt lat="45.48014" lon="5.9132">
        <ele>1178</ele>
        <time>2014-11-16T14:39:23Z</time>
      </trkpt>
      <trkpt lat="45.48012" lon="5.91336">
        <ele>1187</ele>
        <time>2014-11-16T14:39:34Z</time>
      </trkpt>
      <trkpt lat="45.48007" lon="5.9135">
        <ele>1180</ele>
        <time>2014-11-16T14:39:43Z</time>
      </trkpt>
      <trkpt lat="45.48008" lon="5.91372">
        <ele>1178</ele>
        <time>2014-11-16T14:39:55Z</time>
      </trkpt>
      <trkpt lat="45.48008" lon="5.91387">
        <ele>1176</ele>
        <time>2014-11-16T14:40:03Z</time>
      </trkpt>
      <trkpt lat="45.48009" lon="5.91392">
        <ele>1175</ele>
        <time>2014-11-16T14:40:06Z</time>
      </trkpt>
      <trkpt lat="45.48012" lon="5.91402">
        <ele>1176</ele>
        <time>2014-11-16T14:40:18Z</time>
      </trkpt>
    </trkseg>
  </trk>
</gpx>